Time;durP1;ratioP1;P1;durP2;ratioP2;P2;SDS_P1;SDS_P2;PMS_P1;PMS_P2;Temp;Humidity;BMP_temperature;BMP_pressure;BME280_temperature;BME280_humidity;BME280_pressure;Samples;Min_cycle;Max_cycle;Signal;HPM_P1;HPM_P2
2023/03/09 00:00:26;;;;;;;3.93;1.90;;;11.30;99.90;;;;;;5051660;28;20445;-70
2023/03/09 00:02:51;;;;;;;2.67;2.00;;;11.10;99.90;;;;;;5052285;28;20897;-70
2023/03/09 00:05:17;;;;;;;3.70;1.57;;;11.00;99.90;;;;;;5053173;28;20429;-70
2023/03/09 00:07:44;;;;;;;3.50;1.60;;;10.80;99.90;;;;;;5055077;28;20204;-70
2023/03/09 00:10:14;;;;;;;2.20;1.60;;;10.80;99.90;;;;;;5054388;28;20230;-70
2023/03/09 00:12:40;;;;;;;3.73;1.77;;;10.70;99.90;;;;;;5052088;28;20455;-71
2023/03/09 00:15:07;;;;;;;3.20;1.60;;;10.80;99.90;;;;;;5050062;28;20959;-70
2023/03/09 00:17:32;;;;;;;2.00;1.30;;;10.70;99.90;;;;;;5052705;28;20448;-72
2023/03/09 00:20:16;;;;;;;3.50;1.50;;;10.80;99.90;;;;;;5058130;28;20923;-71
2023/03/09 00:22:43;;;;;;;3.30;1.43;;;10.80;99.90;;;;;;5051285;28;20211;-69
2023/03/09 00:25:13;;;;;;;2.40;1.40;;;10.70;99.90;;;;;;5053473;28;20831;-69
2023/03/09 00:27:39;;;;;;;1.93;1.07;;;10.80;99.90;;;;;;5042887;28;20450;-69
2023/03/09 00:30:06;;;;;;;4.90;2.03;;;10.80;99.90;;;;;;5051547;28;20433;-69
2023/03/09 00:32:31;;;;;;;4.73;1.30;;;10.90;99.90;;;;;;5049814;28;21035;-70
2023/03/09 00:34:57;;;;;;;2.57;1.40;;;11.00;99.90;;;;;;5053227;28;20521;-69
2023/03/09 00:37:22;;;;;;;2.47;1.40;;;11.00;99.90;;;;;;5047418;28;20286;-69
2023/03/09 00:39:48;;;;;;;2.43;1.30;;;11.00;99.90;;;;;;5050458;28;20656;-69
2023/03/09 00:42:14;;;;;;;2.17;1.30;;;11.10;99.90;;;;;;5049613;28;20226;-69
2023/03/09 00:44:39;;;;;;;1.67;1.17;;;11.20;99.90;;;;;;5048334;28;20186;-69
2023/03/09 00:47:05;;;;;;;1.70;1.33;;;11.20;99.90;;;;;;5050802;28;20269;-69
2023/03/09 00:49:30;;;;;;;4.43;1.50;;;11.20;99.90;;;;;;5052660;28;20545;-70
2023/03/09 00:51:56;;;;;;;2.60;1.40;;;11.30;99.90;;;;;;5049759;28;20191;-71
2023/03/09 00:54:22;;;;;;;3.13;2.33;;;11.40;99.90;;;;;;5051636;28;20194;-70
2023/03/09 00:56:47;;;;;;;3.60;1.80;;;11.50;99.90;;;;;;5046863;28;20747;-70
2023/03/09 00:59:13;;;;;;;3.17;1.90;;;11.40;99.90;;;;;;5049906;28;20194;-70
2023/03/09 01:01:39;;;;;;;3.20;1.90;;;11.50;99.90;;;;;;5049441;28;20305;-69
2023/03/09 01:04:05;;;;;;;3.70;1.90;;;11.60;99.90;;;;;;5042028;28;20258;-70
2023/03/09 01:06:31;;;;;;;5.13;2.40;;;11.50;99.90;;;;;;5052143;28;20559;-70
2023/03/09 01:08:56;;;;;;;3.30;1.90;;;11.50;99.90;;;;;;5045637;28;20185;-70
2023/03/09 01:11:22;;;;;;;3.03;1.90;;;11.50;99.90;;;;;;5050284;28;20175;-70
2023/03/09 01:13:48;;;;;;;3.83;2.00;;;11.60;99.90;;;;;;5054025;28;20183;-71
2023/03/09 01:16:13;;;;;;;5.93;1.73;;;11.60;99.90;;;;;;5054613;28;20282;-71
2023/03/09 01:18:39;;;;;;;4.30;2.40;;;11.70;99.90;;;;;;5050727;28;20635;-71
2023/03/09 01:21:05;;;;;;;2.40;1.40;;;11.70;99.90;;;;;;5050727;28;20557;-70
2023/03/09 01:23:31;;;;;;;4.60;1.77;;;11.70;99.90;;;;;;5050038;28;20207;-70
2023/03/09 01:25:56;;;;;;;3.23;1.73;;;11.70;99.90;;;;;;5051268;28;20180;-71
2023/03/09 01:28:22;;;;;;;4.60;1.63;;;11.80;99.90;;;;;;5050554;28;20215;-71
2023/03/09 01:30:47;;;;;;;6.50;1.40;;;11.80;99.90;;;;;;5049763;28;20172;-71
2023/03/09 01:33:13;;;;;;;3.10;1.40;;;11.80;99.90;;;;;;5055046;28;20506;-71
2023/03/09 01:35:40;;;;;;;4.20;1.70;;;11.80;99.90;;;;;;5049806;28;20194;-70
2023/03/09 01:38:06;;;;;;;3.10;1.30;;;11.80;99.90;;;;;;5050065;28;20291;-70
2023/03/09 01:40:33;;;;;;;1.80;1.30;;;11.80;99.90;;;;;;5052296;28;20438;-71
2023/03/09 01:43:17;;;;;;;1.80;1.07;;;11.80;99.90;;;;;;5047438;28;20962;-70
2023/03/09 01:45:43;;;;;;;2.27;1.13;;;11.80;99.90;;;;;;5048132;28;20437;-70
2023/03/09 01:48:08;;;;;;;3.07;1.13;;;11.80;99.90;;;;;;5048881;28;20530;-70
2023/03/09 01:50:35;;;;;;;4.10;1.60;;;11.90;99.90;;;;;;5050012;28;20179;-70
2023/03/09 01:53:07;;;;;;;3.10;1.33;;;11.80;99.90;;;;;;5048757;28;20289;-70
2023/03/09 01:55:39;;;;;;;2.90;1.30;;;11.80;99.90;;;;;;5049196;28;20446;-69
2023/03/09 01:58:12;;;;;;;2.53;1.20;;;11.80;99.90;;;;;;5045318;28;20466;-69
2023/03/09 02:00:41;;;;;;;7.43;1.60;;;11.80;99.90;;;;;;5046336;28;22024;-70
2023/03/09 02:03:16;;;;;;;2.00;1.20;;;11.80;99.90;;;;;;5045472;28;20549;-72
2023/03/09 02:05:48;;;;;;;1.90;1.43;;;11.90;99.90;;;;;;5023874;28;20524;-72
2023/03/09 02:08:14;;;;;;;2.70;1.30;;;11.90;99.90;;;;;;5049083;28;20436;-70
2023/03/09 02:10:48;;;;;;;2.77;1.20;;;11.80;99.90;;;;;;5046955;28;21064;-68
2023/03/09 02:13:19;;;;;;;2.33;1.30;;;11.80;99.90;;;;;;5046233;28;20210;-68
2023/03/09 02:15:45;;;;;;;1.80;1.20;;;11.70;99.90;;;;;;5051877;28;20429;-68
2023/03/09 02:18:11;;;;;;;2.47;1.00;;;11.70;99.90;;;;;;5051218;28;20429;-68
2023/03/09 02:21:16;;;;;;;3.53;1.77;;;11.70;99.90;;;;;;5047380;28;20184;-69
2023/03/09 02:24:04;;;;;;;3.70;1.20;;;11.60;99.90;;;;;;5046634;28;20218;-68
2023/03/09 02:26:45;;;;;;;10.13;1.30;;;11.50;99.90;;;;;;5051372;28;20460;-68
2023/03/09 02:29:11;;;;;;;1.80;1.10;;;11.30;99.90;;;;;;5050439;28;20829;-69
2023/03/09 02:31:37;;;;;;;2.83;1.20;;;11.10;99.90;;;;;;5049631;28;20785;-70
2023/03/09 02:34:03;;;;;;;2.90;1.30;;;11.10;99.90;;;;;;5047934;28;20447;-69
2023/03/09 02:36:28;;;;;;;2.30;1.37;;;11.00;99.90;;;;;;5055950;28;20457;-70
2023/03/09 02:38:55;;;;;;;1.50;1.00;;;10.80;99.90;;;;;;5049095;28;20256;-70
2023/03/09 02:41:21;;;;;;;2.00;1.30;;;10.70;99.90;;;;;;5049872;28;20226;-71
2023/03/09 02:43:50;;;;;;;2.57;1.20;;;10.60;99.90;;;;;;5052842;28;20448;-71
2023/03/09 02:46:16;;;;;;;2.23;1.10;;;10.60;99.90;;;;;;5054054;28;20469;-70
2023/03/09 02:48:41;;;;;;;2.13;1.20;;;10.60;99.90;;;;;;5051988;28;20528;-71
2023/03/09 02:51:07;;;;;;;2.13;1.20;;;10.60;99.90;;;;;;5046879;28;20188;-70
2023/03/09 02:53:34;;;;;;;2.73;1.20;;;10.70;99.90;;;;;;5054282;28;20198;-70
2023/03/09 02:55:59;;;;;;;2.67;1.10;;;10.80;99.90;;;;;;5050782;28;20364;-70
2023/03/09 02:58:25;;;;;;;2.60;1.20;;;10.80;99.90;;;;;;5053395;28;20438;-70
2023/03/09 03:00:50;;;;;;;1.90;1.10;;;10.80;99.90;;;;;;5048286;28;20257;-70
2023/03/09 03:03:19;;;;;;;3.67;1.13;;;10.80;99.90;;;;;;5051670;28;20664;-70
2023/03/09 03:05:46;;;;;;;2.70;1.30;;;10.80;99.90;;;;;;5045846;28;20180;-70
2023/03/09 03:08:11;;;;;;;1.47;0.97;;;10.90;99.90;;;;;;5054159;28;20437;-70
2023/03/09 03:10:37;;;;;;;1.97;1.23;;;10.90;99.90;;;;;;5055640;28;20440;-71
2023/03/09 03:13:02;;;;;;;1.43;1.10;;;10.90;99.90;;;;;;5046796;28;20190;-71
2023/03/09 03:15:28;;;;;;;2.43;1.10;;;10.90;99.90;;;;;;5054201;28;20183;-71
2023/03/09 03:17:53;;;;;;;1.87;1.07;;;10.90;99.90;;;;;;5041891;28;20290;-70
2023/03/09 03:20:19;;;;;;;3.73;1.40;;;10.90;99.90;;;;;;5053807;28;20183;-70
2023/03/09 03:22:45;;;;;;;2.73;1.53;;;10.90;99.90;;;;;;5054939;28;20237;-70
2023/03/09 03:25:12;;;;;;;3.97;1.50;;;10.80;99.90;;;;;;5058887;28;20596;-72
2023/03/09 03:27:37;;;;;;;6.10;1.43;;;10.90;99.90;;;;;;5054234;28;20202;-72
2023/03/09 03:30:03;;;;;;;5.77;1.30;;;10.80;99.90;;;;;;5055425;28;20414;-71
2023/03/09 03:32:29;;;;;;;3.30;1.40;;;10.90;99.90;;;;;;5052013;28;20250;-71
2023/03/09 03:34:55;;;;;;;1.90;1.00;;;10.90;99.90;;;;;;5048683;28;20520;-71
2023/03/09 03:37:20;;;;;;;1.80;1.03;;;10.90;99.90;;;;;;5057121;28;20214;-71
2023/03/09 03:39:46;;;;;;;1.87;1.23;;;10.90;99.90;;;;;;5054886;28;20171;-71
2023/03/09 03:42:11;;;;;;;3.30;1.33;;;10.80;99.90;;;;;;5051674;28;20199;-71
2023/03/09 03:44:37;;;;;;;2.83;1.27;;;10.80;99.90;;;;;;5051982;28;20171;-71
2023/03/09 03:47:03;;;;;;;2.90;1.40;;;10.80;99.90;;;;;;5050583;28;20214;-71
2023/03/09 03:49:28;;;;;;;2.03;1.10;;;10.80;99.90;;;;;;5051555;28;20202;-71
2023/03/09 03:51:54;;;;;;;2.03;1.10;;;10.80;99.90;;;;;;5051164;28;20206;-71
2023/03/09 03:54:19;;;;;;;5.50;2.30;;;10.80;99.90;;;;;;5048322;28;20192;-71
2023/03/09 03:56:45;;;;;;;3.33;1.40;;;10.80;99.90;;;;;;5055625;28;20210;-71
2023/03/09 03:59:10;;;;;;;2.53;1.40;;;10.90;99.90;;;;;;5048512;28;20201;-72
2023/03/09 04:01:36;;;;;;;4.17;1.50;;;10.90;99.90;;;;;;5052290;28;20199;-72
2023/03/09 04:04:03;;;;;;;3.17;1.83;;;10.90;99.90;;;;;;5052343;28;20184;-71
2023/03/09 04:06:28;;;;;;;2.43;1.20;;;10.80;99.90;;;;;;5052979;28;20727;-71
2023/03/09 04:08:54;;;;;;;3.43;1.40;;;10.80;99.90;;;;;;5049149;28;20449;-72
2023/03/09 04:11:19;;;;;;;2.23;1.40;;;10.80;99.90;;;;;;5055611;28;20202;-72
2023/03/09 04:13:49;;;;;;;1.77;1.20;;;10.80;99.90;;;;;;5050688;28;20570;-71
2023/03/09 04:16:15;;;;;;;2.73;1.47;;;10.70;99.90;;;;;;5054865;28;20578;-70
2023/03/09 04:18:40;;;;;;;6.33;1.50;;;10.70;99.90;;;;;;5054839;28;20441;-70
2023/03/09 04:21:06;;;;;;;4.20;2.30;;;10.70;99.90;;;;;;5050366;28;20237;-70
2023/03/09 04:23:31;;;;;;;5.57;2.00;;;10.70;99.90;;;;;;5054256;28;20256;-70
2023/03/09 04:25:59;;;;;;;3.73;1.70;;;10.70;99.90;;;;;;5051546;28;20175;-70
2023/03/09 04:28:25;;;;;;;3.70;1.53;;;10.70;99.90;;;;;;5050378;28;20185;-70
2023/03/09 04:30:51;;;;;;;3.23;1.50;;;10.70;99.90;;;;;;5049547;28;20429;-69
2023/03/09 04:33:16;;;;;;;4.50;1.67;;;10.70;99.90;;;;;;5058250;28;20528;-70
2023/03/09 04:35:42;;;;;;;4.53;1.90;;;10.70;99.90;;;;;;5048988;28;20183;-70
2023/03/09 04:38:08;;;;;;;2.63;1.67;;;10.70;99.90;;;;;;5048567;28;20199;-69
2023/03/09 04:40:35;;;;;;;5.90;2.57;;;10.80;99.90;;;;;;5056997;28;20203;-70
2023/03/09 04:43:00;;;;;;;4.87;1.70;;;10.80;99.90;;;;;;5053972;28;20465;-70
2023/03/09 04:45:26;;;;;;;2.43;1.33;;;10.80;99.90;;;;;;5049608;28;21050;-68
2023/03/09 04:47:52;;;;;;;8.10;1.93;;;10.80;99.90;;;;;;5049989;28;20456;-71
2023/03/09 04:50:18;;;;;;;2.63;1.47;;;10.80;99.90;;;;;;5050190;28;20191;-71
2023/03/09 04:52:44;;;;;;;4.00;1.67;;;10.80;99.90;;;;;;5051126;28;20181;-70
2023/03/09 04:55:09;;;;;;;3.20;1.60;;;10.80;99.90;;;;;;5048652;28;20264;-69
2023/03/09 04:57:35;;;;;;;6.20;1.50;;;10.80;99.90;;;;;;5054951;28;20203;-69
2023/03/09 05:00:00;;;;;;;5.50;2.27;;;10.80;99.90;;;;;;5050374;28;20187;-72
2023/03/09 05:02:28;;;;;;;3.37;1.50;;;10.80;99.90;;;;;;5051115;28;20250;-71
2023/03/09 05:04:54;;;;;;;3.97;1.70;;;10.80;99.90;;;;;;5047803;28;20285;-70
2023/03/09 05:07:20;;;;;;;5.57;1.60;;;10.80;99.90;;;;;;5049335;28;21130;-71
2023/03/09 05:09:45;;;;;;;6.83;1.90;;;10.90;99.90;;;;;;5046751;28;20437;-70
2023/03/09 05:12:11;;;;;;;8.00;1.83;;;10.90;99.90;;;;;;5050683;28;20339;-70
2023/03/09 05:14:37;;;;;;;6.40;2.00;;;10.90;99.90;;;;;;5045926;28;20202;-70
2023/03/09 05:17:03;;;;;;;5.10;1.83;;;10.90;99.90;;;;;;5049612;28;20214;-69
2023/03/09 05:19:29;;;;;;;4.17;1.93;;;10.90;99.90;;;;;;5046526;28;20283;-70
2023/03/09 05:21:55;;;;;;;5.80;2.53;;;10.90;99.90;;;;;;5050193;28;20553;-70
2023/03/09 05:24:20;;;;;;;6.53;1.90;;;10.90;99.90;;;;;;5048596;28;20211;-70
2023/03/09 05:26:46;;;;;;;3.17;2.10;;;10.90;99.90;;;;;;5048107;28;20249;-69
2023/03/09 05:29:11;;;;;;;8.20;2.30;;;10.90;99.90;;;;;;5049087;28;20236;-69
2023/03/09 05:31:37;;;;;;;3.97;1.70;;;11.00;99.90;;;;;;5054286;28;20367;-69
2023/03/09 05:34:03;;;;;;;3.97;2.10;;;11.00;99.90;;;;;;5048424;28;20257;-69
2023/03/09 05:36:29;;;;;;;5.83;2.13;;;11.00;99.90;;;;;;5051985;28;20198;-69
2023/03/09 05:38:55;;;;;;;5.50;2.00;;;11.00;99.90;;;;;;5047755;28;20245;-69
2023/03/09 05:41:21;;;;;;;9.50;2.00;;;11.10;99.90;;;;;;5047150;28;20465;-69
2023/03/09 05:43:46;;;;;;;3.30;1.50;;;11.10;99.90;;;;;;5051389;28;20623;-69
2023/03/09 05:46:14;;;;;;;4.03;1.90;;;11.10;99.90;;;;;;5011784;28;1049209;-68
2023/03/09 05:48:40;;;;;;;10.17;2.73;;;11.10;99.90;;;;;;5046155;28;20226;-69
2023/03/09 05:51:10;;;;;;;5.67;1.70;;;11.20;99.90;;;;;;5050373;28;20453;-69
2023/03/09 05:53:35;;;;;;;8.90;2.03;;;11.20;99.90;;;;;;5051482;28;20438;-69
2023/03/09 05:56:01;;;;;;;7.87;2.17;;;11.20;99.90;;;;;;5048298;28;20456;-69
2023/03/09 05:58:27;;;;;;;7.63;2.27;;;11.20;99.90;;;;;;5047806;28;21093;-71
2023/03/09 06:00:53;;;;;;;5.00;2.10;;;11.30;99.90;;;;;;5049283;28;20483;-71
2023/03/09 06:03:20;;;;;;;5.40;2.00;;;11.30;99.90;;;;;;5053368;28;20477;-71
2023/03/09 06:05:46;;;;;;;5.13;1.80;;;11.40;99.90;;;;;;5044764;28;20445;-72
2023/03/09 06:08:13;;;;;;;5.67;1.93;;;11.40;99.90;;;;;;5049877;28;20988;-71
2023/03/09 06:10:38;;;;;;;10.03;3.83;;;11.40;99.90;;;;;;5050158;28;20532;-70
2023/03/09 06:13:04;;;;;;;6.40;2.43;;;11.40;99.90;;;;;;5049854;28;20441;-70
2023/03/09 06:15:30;;;;;;;7.13;2.43;;;11.40;99.90;;;;;;5049916;28;20191;-70
2023/03/09 06:17:55;;;;;;;5.37;2.37;;;11.40;99.90;;;;;;5049045;28;20237;-70
2023/03/09 06:20:21;;;;;;;5.80;2.13;;;11.50;99.90;;;;;;5049897;28;20210;-69
2023/03/09 06:22:47;;;;;;;9.93;2.30;;;11.50;99.90;;;;;;5052663;28;20215;-70
2023/03/09 06:25:13;;;;;;;11.23;2.37;;;11.50;99.90;;;;;;5053922;28;20237;-69
2023/03/09 06:27:39;;;;;;;5.07;2.00;;;11.50;99.90;;;;;;5053987;28;20441;-69
2023/03/09 06:30:05;;;;;;;5.27;2.30;;;11.50;99.90;;;;;;5043398;28;20444;-71
2023/03/09 06:32:32;;;;;;;7.80;2.20;;;11.50;99.90;;;;;;5049245;28;20191;-68
2023/03/09 06:34:58;;;;;;;6.37;2.20;;;11.50;99.90;;;;;;5044853;28;20445;-69
2023/03/09 06:37:24;;;;;;;10.27;2.27;;;11.50;99.90;;;;;;5046078;28;20468;-69
2023/03/09 06:39:49;;;;;;;10.73;2.80;;;11.50;99.90;;;;;;5049909;28;20267;-69
2023/03/09 06:42:15;;;;;;;15.60;2.67;;;11.50;99.90;;;;;;5048424;28;21113;-69
2023/03/09 06:44:42;;;;;;;10.83;2.20;;;11.60;99.90;;;;;;5049679;28;20501;-70
2023/03/09 06:47:08;;;;;;;6.40;2.20;;;11.60;99.90;;;;;;5046353;28;20265;-69
2023/03/09 06:49:34;;;;;;;9.23;2.00;;;11.70;99.90;;;;;;5045699;28;20465;-69
2023/03/09 06:51:59;;;;;;;4.27;2.03;;;11.70;99.90;;;;;;5046000;28;20472;-71
2023/03/09 06:54:25;;;;;;;7.90;2.50;;;11.70;99.90;;;;;;5050389;28;20222;-69
2023/03/09 06:56:51;;;;;;;5.13;1.90;;;11.70;99.90;;;;;;5047551;28;20218;-69
2023/03/09 06:59:17;;;;;;;8.70;2.40;;;11.70;99.90;;;;;;5045683;28;20448;-68
2023/03/09 07:01:43;;;;;;;7.10;2.57;;;11.80;99.90;;;;;;5048058;28;21617;-68
2023/03/09 07:04:08;;;;;;;9.60;2.53;;;11.90;99.90;;;;;;5040999;28;20222;-68
2023/03/09 07:06:34;;;;;;;10.23;2.67;;;11.90;99.90;;;;;;5045565;28;20231;-69
2023/03/09 07:08:59;;;;;;;9.40;2.07;;;11.90;99.90;;;;;;5043887;28;20218;-69
2023/03/09 07:11:25;;;;;;;4.93;2.53;;;12.00;99.90;;;;;;5046477;28;20238;-69
2023/03/09 07:13:51;;;;;;;9.20;2.40;;;12.00;99.90;;;;;;5042051;28;20197;-70
2023/03/09 07:16:16;;;;;;;7.20;2.17;;;12.00;99.90;;;;;;5046803;28;20665;-70
2023/03/09 07:18:42;;;;;;;4.53;2.47;;;12.00;99.90;;;;;;5043229;28;20524;-70
2023/03/09 07:21:09;;;;;;;8.90;2.37;;;12.10;99.90;;;;;;5045532;28;20904;-70
2023/03/09 07:23:34;;;;;;;10.07;2.70;;;12.10;99.90;;;;;;5050706;28;20180;-70
2023/03/09 07:26:04;;;;;;;10.23;3.47;;;12.10;99.90;;;;;;5051857;28;20425;-70
2023/03/09 07:28:31;;;;;;;11.80;2.90;;;12.10;99.90;;;;;;5053287;28;20175;-71
2023/03/09 07:30:56;;;;;;;9.37;2.23;;;12.10;99.90;;;;;;5050980;28;20441;-70
2023/03/09 07:33:22;;;;;;;7.30;2.13;;;12.20;99.90;;;;;;5046332;28;20450;-71
2023/03/09 07:35:47;;;;;;;4.43;2.57;;;12.20;99.90;;;;;;5048116;28;20278;-68
2023/03/09 07:38:13;;;;;;;5.50;2.10;;;12.20;99.90;;;;;;5046466;28;20196;-69
2023/03/09 07:40:39;;;;;;;5.17;2.30;;;12.30;99.90;;;;;;5054688;28;20238;-69
2023/03/09 07:43:04;;;;;;;4.80;2.10;;;12.30;99.90;;;;;;5052222;28;20226;-68
2023/03/09 07:45:30;;;;;;;2.73;1.77;;;12.40;99.90;;;;;;5047639;28;20196;-70
2023/03/09 07:47:56;;;;;;;6.57;1.97;;;12.40;99.90;;;;;;5045802;28;20198;-69
2023/03/09 07:50:24;;;;;;;9.13;2.53;;;12.30;99.90;;;;;;5051434;28;20568;-70
2023/03/09 07:52:53;;;;;;;10.63;2.70;;;12.30;99.90;;;;;;5040075;28;20447;-71
2023/03/09 07:55:22;;;;;;;9.50;2.77;;;12.30;99.90;;;;;;5047410;28;20491;-72
2023/03/09 07:57:47;;;;;;;4.93;2.23;;;12.20;99.90;;;;;;5033558;28;20457;-72
2023/03/09 08:00:20;;;;;;;7.97;2.70;;;12.20;99.90;;;;;;5045460;28;20437;-70
2023/03/09 08:02:46;;;;;;;5.63;3.13;;;12.10;99.90;;;;;;5047923;28;20323;-69
2023/03/09 08:05:12;;;;;;;12.80;2.83;;;12.10;99.90;;;;;;5044417;28;20444;-68
2023/03/09 08:07:38;;;;;;;6.17;2.13;;;12.00;99.90;;;;;;5048549;28;20453;-69
2023/03/09 08:10:04;;;;;;;10.87;2.37;;;12.00;99.90;;;;;;5049093;28;20187;-70
2023/03/09 08:12:30;;;;;;;7.57;1.90;;;12.10;99.90;;;;;;5046627;28;20248;-71
2023/03/09 08:14:55;;;;;;;9.73;2.77;;;12.00;99.90;;;;;;5047201;28;20626;-70
2023/03/09 08:17:21;;;;;;;5.03;1.90;;;12.10;99.90;;;;;;5048474;28;20211;-70
2023/03/09 08:19:46;;;;;;;7.10;2.30;;;12.10;99.90;;;;;;5045043;28;20218;-70
2023/03/09 08:22:12;;;;;;;5.20;2.07;;;12.10;99.90;;;;;;5048626;28;22105;-71
2023/03/09 08:24:37;;;;;;;7.27;2.60;;;12.20;99.90;;;;;;5048452;28;20567;-71
2023/03/09 08:27:03;;;;;;;7.50;1.97;;;12.30;99.90;;;;;;5047859;28;20714;-71
2023/03/09 08:29:29;;;;;;;6.53;2.13;;;12.40;99.90;;;;;;5046205;28;20255;-71
2023/03/09 08:31:54;;;;;;;13.27;2.50;;;12.40;99.90;;;;;;5040995;28;20192;-69
2023/03/09 08:34:20;;;;;;;6.90;2.53;;;12.40;99.90;;;;;;5046584;28;20194;-68
2023/03/09 08:36:46;;;;;;;3.23;1.73;;;12.30;99.90;;;;;;5043792;28;20245;-71
2023/03/09 08:39:11;;;;;;;9.20;2.30;;;12.20;99.90;;;;;;5037319;28;20669;-71
2023/03/09 08:41:37;;;;;;;7.63;2.33;;;12.20;99.90;;;;;;5044116;28;20346;-73
2023/03/09 08:44:03;;;;;;;7.53;2.20;;;12.20;99.90;;;;;;5048287;28;20175;-74
2023/03/09 08:46:28;;;;;;;3.80;1.60;;;12.30;99.90;;;;;;5032579;28;20249;-72
2023/03/09 08:48:56;;;;;;;4.40;2.10;;;12.30;99.90;;;;;;5046194;28;21029;-71
2023/03/09 08:51:21;;;;;;;7.53;3.13;;;12.40;99.90;;;;;;5046775;28;20182;-70
2023/03/09 08:53:47;;;;;;;5.83;1.97;;;12.40;99.90;;;;;;5049656;28;20430;-72
2023/03/09 08:56:13;;;;;;;5.87;1.77;;;12.40;99.90;;;;;;5044694;28;20273;-72
2023/03/09 08:58:39;;;;;;;5.57;2.10;;;12.40;99.90;;;;;;5046412;28;20182;-73
2023/03/09 09:01:08;;;;;;;5.60;1.70;;;12.40;99.90;;;;;;5048833;28;20217;-73
2023/03/09 09:03:34;;;;;;;2.80;1.60;;;12.40;99.90;;;;;;5050047;28;20533;-72
2023/03/09 09:06:05;;;;;;;4.17;1.93;;;12.40;99.90;;;;;;5040072;28;20469;-76
2023/03/09 09:08:30;;;;;;;7.57;3.80;;;12.40;99.90;;;;;;5043434;28;20955;-76
2023/03/09 09:10:59;;;;;;;8.33;1.67;;;12.40;99.90;;;;;;5046956;28;20445;-75
2023/03/09 09:13:25;;;;;;;4.03;1.77;;;12.40;99.90;;;;;;5047208;28;20183;-77
2023/03/09 09:15:54;;;;;;;7.50;2.30;;;12.50;99.90;;;;;;5046147;28;20643;-79
2023/03/09 09:18:21;;;;;;;5.37;2.10;;;12.50;99.90;;;;;;5043979;28;20192;-76
2023/03/09 09:20:47;;;;;;;7.50;2.10;;;12.50;99.90;;;;;;5047191;28;20516;-74
2023/03/09 09:23:14;;;;;;;6.63;2.23;;;12.50;99.90;;;;;;5043272;28;20626;-78
2023/03/09 09:25:40;;;;;;;4.27;1.80;;;12.50;99.90;;;;;;5048072;28;20491;-71
2023/03/09 09:28:05;;;;;;;6.27;2.00;;;12.50;99.90;;;;;;5040291;28;20465;-72
2023/03/09 09:30:32;;;;;;;3.97;1.90;;;12.50;99.90;;;;;;5043287;28;20441;-72
2023/03/09 09:32:59;;;;;;;5.67;2.07;;;12.60;99.90;;;;;;5042174;28;20276;-73
2023/03/09 09:35:27;;;;;;;3.90;1.80;;;12.60;99.90;;;;;;5041905;28;20441;-74
2023/03/09 09:37:57;;;;;;;5.03;1.97;;;12.60;99.90;;;;;;5043169;28;20950;-73
2023/03/09 09:40:23;;;;;;;4.60;1.57;;;12.50;99.90;;;;;;5039142;28;20936;-73
2023/03/09 09:42:50;;;;;;;3.83;1.80;;;12.40;99.90;;;;;;5045726;28;20472;-72
2023/03/09 09:45:25;;;;;;;5.20;2.03;;;12.40;99.90;;;;;;5043447;28;20438;-72
2023/03/09 09:47:52;;;;;;;8.73;2.37;;;12.40;99.90;;;;;;5045904;28;20476;-75
2023/03/09 09:50:19;;;;;;;4.90;2.37;;;12.40;99.90;;;;;;5041889;28;21015;-75
2023/03/09 09:53:16;;;;;;;5.50;2.63;;;12.40;99.90;;;;;;5045110;28;20565;-75
2023/03/09 09:55:44;;;;;;;5.63;2.63;;;12.50;99.90;;;;;;5041323;28;21261;-73
2023/03/09 09:58:36;;;;;;;4.70;2.37;;;12.40;99.90;;;;;;5042482;28;20453;-74
2023/03/09 10:01:16;;;;;;;8.67;2.60;;;12.40;99.90;;;;;;5044223;28;20441;-72
2023/03/09 10:03:47;;;;;;;5.23;1.90;;;12.50;99.90;;;;;;5045882;28;20535;-73
2023/03/09 10:06:23;;;;;;;9.90;2.50;;;12.50;99.90;;;;;;5042279;28;20897;-71
2023/03/09 10:09:05;;;;;;;6.60;1.90;;;12.60;99.90;;;;;;5043206;28;21035;-72
2023/03/09 10:11:48;;;;;;;5.70;1.80;;;12.60;99.90;;;;;;5046217;28;20445;-72
2023/03/09 10:14:38;;;;;;;4.90;2.20;;;12.50;99.90;;;;;;5045045;28;20433;-72
2023/03/09 10:17:31;;;;;;;7.60;2.53;;;12.70;99.90;;;;;;5042456;28;20460;-72
2023/03/09 10:20:14;;;;;;;6.70;2.80;;;12.70;99.90;;;;;;5042506;28;20469;-74
2023/03/09 10:22:41;;;;;;;5.27;1.97;;;12.50;99.90;;;;;;5046331;28;20473;-72
2023/03/09 10:25:18;;;;;;;8.30;2.07;;;12.40;99.90;;;;;;5042908;28;20484;-72
2023/03/09 10:27:50;;;;;;;7.93;2.03;;;12.50;99.90;;;;;;5046276;28;20452;-72
2023/03/09 10:30:25;;;;;;;11.60;2.50;;;12.40;99.90;;;;;;5046631;28;20524;-77
2023/03/09 10:33:06;;;;;;;3.50;1.60;;;12.40;99.90;;;;;;5043131;28;20519;-71
2023/03/09 10:35:42;;;;;;;6.13;2.27;;;12.40;99.90;;;;;;5048954;28;20429;-75
2023/03/09 10:38:13;;;;;;;6.87;2.00;;;12.50;99.90;;;;;;5041815;28;20461;-76
2023/03/09 10:40:51;;;;;;;4.93;2.07;;;12.50;99.90;;;;;;5042552;28;20468;-71
2023/03/09 10:43:31;;;;;;;6.23;2.30;;;12.50;99.90;;;;;;5043507;28;20477;-69
2023/03/09 10:46:20;;;;;;;7.67;2.60;;;12.60;99.90;;;;;;5041915;28;20447;-76
2023/03/09 10:48:47;;;;;;;3.70;2.03;;;12.70;99.90;;;;;;5042710;28;20494;-73
2023/03/09 10:51:42;;;;;;;8.17;2.20;;;12.90;99.90;;;;;;5042254;28;20438;-73
2023/03/09 10:54:17;;;;;;;5.03;1.80;;;13.00;99.90;;;;;;5039647;28;20781;-74
2023/03/09 10:56:45;;;;;;;4.80;2.23;;;13.00;99.90;;;;;;5048492;28;20453;-71
2023/03/09 10:59:20;;;;;;;8.13;2.37;;;13.30;99.90;;;;;;5042921;28;20437;-75
2023/03/09 11:01:48;;;;;;;4.83;1.80;;;13.40;99.90;;;;;;5048980;28;20460;-74
2023/03/09 11:04:23;;;;;;;8.63;2.20;;;13.40;99.90;;;;;;5045998;28;20447;-71
2023/03/09 11:07:00;;;;;;;5.20;2.30;;;13.60;99.90;;;;;;5046542;28;20455;-70
2023/03/09 11:09:41;;;;;;;4.13;2.00;;;13.60;99.90;;;;;;5049143;28;20462;-71
2023/03/09 11:12:20;;;;;;;5.77;2.23;;;13.80;99.90;;;;;;5052443;28;20437;-73
2023/03/09 11:14:53;;;;;;;4.33;1.97;;;13.80;99.90;;;;;;5049184;28;20446;-72
2023/03/09 11:17:40;;;;;;;3.77;1.90;;;13.90;99.90;;;;;;5046246;28;20465;-71
2023/03/09 11:20:14;;;;;;;5.50;2.30;;;14.10;99.90;;;;;;5039874;28;20441;-73
2023/03/09 11:22:45;;;;;;;4.87;2.40;;;14.30;99.90;;;;;;5048548;28;20997;-76
2023/03/09 11:25:38;;;;;;;6.90;2.33;;;14.40;99.90;;;;;;5043148;28;20468;-73
2023/03/09 11:28:15;;;;;;;5.57;1.83;;;14.60;99.90;;;;;;5047187;28;20485;-77
2023/03/09 11:30:40;;;;;;;7.30;1.93;;;14.70;99.90;;;;;;5048967;28;20501;-70
2023/03/09 11:33:14;;;;;;;3.93;2.03;;;14.70;99.90;;;;;;5045703;28;20529;-70
2023/03/09 11:35:41;;;;;;;7.53;2.80;;;14.50;99.90;;;;;;5047462;28;20218;-70
2023/03/09 11:38:12;;;;;;;8.93;2.30;;;14.40;99.90;;;;;;5044144;28;21058;-69
2023/03/09 11:40:39;;;;;;;5.97;2.50;;;14.30;99.90;;;;;;5050605;28;20464;-70
2023/03/09 11:43:14;;;;;;;6.47;2.37;;;14.40;99.90;;;;;;5045137;28;20553;-70
2023/03/09 11:45:41;;;;;;;9.10;2.50;;;14.30;99.90;;;;;;5046173;28;20440;-70
2023/03/09 11:48:25;;;;;;;5.27;2.10;;;14.10;99.90;;;;;;5044643;28;20462;-70
2023/03/09 11:50:54;;;;;;;11.37;2.20;;;14.00;99.90;;;;;;5040741;28;21711;-70
2023/03/09 11:53:29;;;;;;;5.00;1.73;;;14.00;99.90;;;;;;5045911;28;20680;-69
2023/03/09 11:56:29;;;;;;;7.00;1.73;;;13.90;99.90;;;;;;5029880;28;20482;-69
2023/03/09 11:59:09;;;;;;;9.00;2.07;;;13.80;99.90;;;;;;5043164;28;20508;-69
2023/03/09 12:01:43;;;;;;;10.70;3.40;;;13.60;99.90;;;;;;5048896;28;20471;-69
2023/03/09 12:04:08;;;;;;;4.83;2.10;;;13.60;99.90;;;;;;5058447;28;20983;-70
2023/03/09 12:06:41;;;;;;;4.37;2.00;;;13.70;99.90;;;;;;5045417;28;20493;-70
2023/03/09 12:09:16;;;;;;;6.83;2.47;;;13.60;99.90;;;;;;5045582;28;20184;-68
2023/03/09 12:11:50;;;;;;;5.80;2.17;;;13.60;99.90;;;;;;5043271;28;20436;-68
2023/03/09 12:14:21;;;;;;;8.83;2.97;;;13.50;99.90;;;;;;5042847;28;20506;-69
2023/03/09 12:16:52;;;;;;;9.93;2.60;;;13.50;99.90;;;;;;5051946;28;20458;-69
2023/03/09 12:19:21;;;;;;;10.13;2.60;;;13.40;99.90;;;;;;5053139;28;20471;-68
2023/03/09 12:21:59;;;;;;;11.73;2.10;;;13.40;99.90;;;;;;5049919;28;20624;-69
2023/03/09 12:24:27;;;;;;;9.50;2.40;;;13.60;99.90;;;;;;5048866;28;20465;-68
2023/03/09 12:27:18;;;;;;;6.00;1.93;;;13.70;99.90;;;;;;5040911;28;21000;-68
2023/03/09 12:29:50;;;;;;;7.53;2.20;;;13.60;99.90;;;;;;5044996;28;20545;-68
2023/03/09 12:32:21;;;;;;;7.30;2.50;;;13.80;99.90;;;;;;5049267;28;20441;-68
2023/03/09 12:34:50;;;;;;;12.93;2.47;;;14.10;99.90;;;;;;5050015;28;20437;-69
2023/03/09 12:37:28;;;;;;;12.43;2.53;;;14.40;99.90;;;;;;5044821;28;20519;-68
2023/03/09 12:40:33;;;;;;;10.70;2.47;;;14.30;99.90;;;;;;5050001;28;20468;-68
2023/03/09 12:43:21;;;;;;;6.07;2.37;;;14.40;99.90;;;;;;5045841;28;20583;-68
2023/03/09 12:45:49;;;;;;;4.77;1.90;;;14.70;99.90;;;;;;5050421;28;20465;-68
2023/03/09 12:48:33;;;;;;;6.97;2.47;;;14.90;99.90;;;;;;5049548;28;20459;-70
2023/03/09 12:51:20;;;;;;;5.00;2.17;;;14.80;99.90;;;;;;5050556;28;20433;-69
2023/03/09 12:54:07;;;;;;;6.20;2.57;;;14.70;99.90;;;;;;5049057;28;20534;-67